sensor_id;sensor_type;location;lat;lon;timestamp;P1;durP1;ratioP1;P2;durP2;ratioP2
14872;SDS011;7528;48.576;19.122;2023-01-19T00:01:09;29.93;;;22.50;;
14872;SDS011;7528;48.576;19.122;2023-01-19T00:06:11;28.67;;;21.30;;
14872;SDS011;7528;48.576;19.122;2023-01-19T00:11:15;27.63;;;21.00;;
14872;SDS011;7528;48.576;19.122;2023-01-19T00:16:18;28.83;;;21.60;;
14872;SDS011;7528;48.576;19.122;2023-01-19T00:21:22;28.40;;;21.70;;
14872;SDS011;7528;48.576;19.122;2023-01-19T00:26:27;27.20;;;20.67;;
14872;SDS011;7528;48.576;19.122;2023-01-19T00:31:30;43.13;;;29.07;;
14872;SDS011;7528;48.576;19.122;2023-01-19T00:36:33;45.50;;;31.73;;
14872;SDS011;7528;48.576;19.122;2023-01-19T00:41:37;33.23;;;24.73;;
14872;SDS011;7528;48.576;19.122;2023-01-19T00:46:57;35.83;;;23.93;;
14872;SDS011;7528;48.576;19.122;2023-01-19T00:52:00;33.23;;;24.13;;
14872;SDS011;7528;48.576;19.122;2023-01-19T00:57:04;35.30;;;25.07;;
14872;SDS011;7528;48.576;19.122;2023-01-19T01:02:06;31.97;;;24.33;;
14872;SDS011;7528;48.576;19.122;2023-01-19T01:07:10;34.30;;;25.50;;
14872;SDS011;7528;48.576;19.122;2023-01-19T01:12:14;38.87;;;25.67;;
14872;SDS011;7528;48.576;19.122;2023-01-19T01:17:17;33.17;;;22.97;;
14872;SDS011;7528;48.576;19.122;2023-01-19T01:22:24;30.47;;;21.80;;
14872;SDS011;7528;48.576;19.122;2023-01-19T01:27:28;29.83;;;21.57;;
14872;SDS011;7528;48.576;19.122;2023-01-19T01:32:31;31.77;;;23.67;;
14872;SDS011;7528;48.576;19.122;2023-01-19T01:37:33;29.87;;;22.23;;
14872;SDS011;7528;48.576;19.122;2023-01-19T01:42:37;33.87;;;23.13;;
14872;SDS011;7528;48.576;19.122;2023-01-19T01:47:40;29.90;;;22.30;;
14872;SDS011;7528;48.576;19.122;2023-01-19T01:52:46;28.60;;;20.67;;
14872;SDS011;7528;48.576;19.122;2023-01-19T01:57:54;32.80;;;22.47;;
14872;SDS011;7528;48.576;19.122;2023-01-19T02:03:01;28.97;;;20.97;;
14872;SDS011;7528;48.576;19.122;2023-01-19T02:08:05;28.20;;;20.87;;
14872;SDS011;7528;48.576;19.122;2023-01-19T02:13:29;27.23;;;20.90;;
14872;SDS011;7528;48.576;19.122;2023-01-19T02:18:34;29.03;;;21.40;;
14872;SDS011;7528;48.576;19.122;2023-01-19T02:23:40;34.40;;;22.67;;
14872;SDS011;7528;48.576;19.122;2023-01-19T02:28:45;35.87;;;25.07;;
14872;SDS011;7528;48.576;19.122;2023-01-19T02:33:51;33.40;;;23.07;;
14872;SDS011;7528;48.576;19.122;2023-01-19T02:38:55;29.67;;;21.37;;
14872;SDS011;7528;48.576;19.122;2023-01-19T02:44:00;29.60;;;21.07;;
14872;SDS011;7528;48.576;19.122;2023-01-19T02:49:03;33.80;;;24.00;;
14872;SDS011;7528;48.576;19.122;2023-01-19T02:59:44;28.40;;;21.57;;
14872;SDS011;7528;48.576;19.122;2023-01-19T03:04:56;26.67;;;19.53;;
14872;SDS011;7528;48.576;19.122;2023-01-19T03:10:06;26.77;;;18.87;;
14872;SDS011;7528;48.576;19.122;2023-01-19T03:15:18;24.80;;;18.97;;
14872;SDS011;7528;48.576;19.122;2023-01-19T03:20:24;24.57;;;18.63;;
14872;SDS011;7528;48.576;19.122;2023-01-19T03:25:30;23.20;;;16.97;;
14872;SDS011;7528;48.576;19.122;2023-01-19T03:30:38;23.30;;;18.33;;
14872;SDS011;7528;48.576;19.122;2023-01-19T03:35:42;23.03;;;17.50;;
14872;SDS011;7528;48.576;19.122;2023-01-19T03:40:57;22.80;;;17.47;;
14872;SDS011;7528;48.576;19.122;2023-01-19T03:46:02;22.10;;;17.63;;
14872;SDS011;7528;48.576;19.122;2023-01-19T03:51:07;24.57;;;18.73;;
14872;SDS011;7528;48.576;19.122;2023-01-19T03:56:15;22.07;;;16.93;;
14872;SDS011;7528;48.576;19.122;2023-01-19T04:01:19;24.63;;;17.13;;
14872;SDS011;7528;48.576;19.122;2023-01-19T04:06:22;22.10;;;17.10;;
14872;SDS011;7528;48.576;19.122;2023-01-19T04:11:26;19.20;;;15.37;;
14872;SDS011;7528;48.576;19.122;2023-01-19T04:16:28;20.90;;;16.10;;
14872;SDS011;7528;48.576;19.122;2023-01-19T04:21:31;19.77;;;15.10;;
14872;SDS011;7528;48.576;19.122;2023-01-19T04:26:37;19.50;;;15.00;;
14872;SDS011;7528;48.576;19.122;2023-01-19T04:31:39;18.47;;;14.93;;
14872;SDS011;7528;48.576;19.122;2023-01-19T04:36:42;18.90;;;14.33;;
14872;SDS011;7528;48.576;19.122;2023-01-19T04:41:47;16.53;;;13.43;;
14872;SDS011;7528;48.576;19.122;2023-01-19T04:46:51;18.50;;;14.77;;
14872;SDS011;7528;48.576;19.122;2023-01-19T04:51:54;15.40;;;12.87;;
14872;SDS011;7528;48.576;19.122;2023-01-19T04:56:57;16.77;;;13.50;;
14872;SDS011;7528;48.576;19.122;2023-01-19T05:02:00;16.43;;;12.73;;
14872;SDS011;7528;48.576;19.122;2023-01-19T05:07:02;15.20;;;11.17;;
14872;SDS011;7528;48.576;19.122;2023-01-19T05:12:06;17.47;;;11.93;;
14872;SDS011;7528;48.576;19.122;2023-01-19T05:17:09;16.87;;;12.83;;
14872;SDS011;7528;48.576;19.122;2023-01-19T05:22:11;16.13;;;11.83;;
14872;SDS011;7528;48.576;19.122;2023-01-19T05:27:15;18.40;;;10.93;;
14872;SDS011;7528;48.576;19.122;2023-01-19T05:32:18;15.07;;;10.90;;
14872;SDS011;7528;48.576;19.122;2023-01-19T05:37:20;15.20;;;11.27;;
14872;SDS011;7528;48.576;19.122;2023-01-19T05:42:24;15.57;;;11.93;;
14872;SDS011;7528;48.576;19.122;2023-01-19T05:47:27;15.23;;;11.53;;
14872;SDS011;7528;48.576;19.122;2023-01-19T05:52:30;16.93;;;13.70;;
14872;SDS011;7528;48.576;19.122;2023-01-19T05:57:34;19.10;;;13.67;;
14872;SDS011;7528;48.576;19.122;2023-01-19T06:02:36;17.07;;;12.83;;
14872;SDS011;7528;48.576;19.122;2023-01-19T06:07:38;15.77;;;11.83;;
14872;SDS011;7528;48.576;19.122;2023-01-19T06:12:42;17.40;;;13.43;;
14872;SDS011;7528;48.576;19.122;2023-01-19T06:17:45;22.97;;;16.27;;
14872;SDS011;7528;48.576;19.122;2023-01-19T06:22:47;15.00;;;12.50;;
14872;SDS011;7528;48.576;19.122;2023-01-19T06:27:51;12.90;;;10.13;;
14872;SDS011;7528;48.576;19.122;2023-01-19T06:32:54;17.00;;;13.47;;
14872;SDS011;7528;48.576;19.122;2023-01-19T06:37:56;14.70;;;10.83;;
14872;SDS011;7528;48.576;19.122;2023-01-19T06:43:00;16.00;;;12.00;;
14872;SDS011;7528;48.576;19.122;2023-01-19T06:48:02;18.60;;;13.60;;
14872;SDS011;7528;48.576;19.122;2023-01-19T06:53:05;21.83;;;15.90;;
14872;SDS011;7528;48.576;19.122;2023-01-19T06:58:09;17.40;;;13.40;;
14872;SDS011;7528;48.576;19.122;2023-01-19T07:03:16;29.27;;;21.73;;
14872;SDS011;7528;48.576;19.122;2023-01-19T07:08:21;18.23;;;13.63;;
14872;SDS011;7528;48.576;19.122;2023-01-19T07:13:25;28.23;;;20.50;;
14872;SDS011;7528;48.576;19.122;2023-01-19T07:18:28;35.43;;;27.77;;
14872;SDS011;7528;48.576;19.122;2023-01-19T07:23:30;29.20;;;20.73;;
14872;SDS011;7528;48.576;19.122;2023-01-19T07:28:34;17.97;;;12.67;;
14872;SDS011;7528;48.576;19.122;2023-01-19T07:33:37;16.63;;;12.13;;
14872;SDS011;7528;48.576;19.122;2023-01-19T07:38:39;24.50;;;16.07;;
14872;SDS011;7528;48.576;19.122;2023-01-19T07:43:43;23.87;;;15.67;;
14872;SDS011;7528;48.576;19.122;2023-01-19T07:48:45;31.23;;;18.90;;
14872;SDS011;7528;48.576;19.122;2023-01-19T07:53:48;31.27;;;19.60;;
14872;SDS011;7528;48.576;19.122;2023-01-19T07:58:53;31.37;;;18.50;;
14872;SDS011;7528;48.576;19.122;2023-01-19T08:03:55;26.67;;;18.77;;
14872;SDS011;7528;48.576;19.122;2023-01-19T08:08:57;40.77;;;27.77;;
14872;SDS011;7528;48.576;19.122;2023-01-19T08:14:01;27.03;;;19.77;;
14872;SDS011;7528;48.576;19.122;2023-01-19T08:19:04;28.73;;;19.10;;
14872;SDS011;7528;48.576;19.122;2023-01-19T08:24:09;28.13;;;19.97;;
14872;SDS011;7528;48.576;19.122;2023-01-19T08:29:21;29.53;;;20.17;;
14872;SDS011;7528;48.576;19.122;2023-01-19T08:34:24;32.80;;;21.60;;
14872;SDS011;7528;48.576;19.122;2023-01-19T08:39:27;27.53;;;17.50;;
14872;SDS011;7528;48.576;19.122;2023-01-19T08:44:30;22.97;;;16.47;;
14872;SDS011;7528;48.576;19.122;2023-01-19T08:49:33;24.43;;;15.73;;
14872;SDS011;7528;48.576;19.122;2023-01-19T08:54:36;38.67;;;22.63;;
14872;SDS011;7528;48.576;19.122;2023-01-19T08:59:39;19.53;;;13.37;;
14872;SDS011;7528;48.576;19.122;2023-01-19T09:04:42;13.80;;;11.13;;
14872;SDS011;7528;48.576;19.122;2023-01-19T09:09:44;16.87;;;12.60;;
14872;SDS011;7528;48.576;19.122;2023-01-19T09:14:48;21.17;;;15.70;;
14872;SDS011;7528;48.576;19.122;2023-01-19T09:19:51;29.90;;;18.80;;
14872;SDS011;7528;48.576;19.122;2023-01-19T09:24:53;16.50;;;12.10;;
14872;SDS011;7528;48.576;19.122;2023-01-19T09:29:57;19.53;;;14.57;;
14872;SDS011;7528;48.576;19.122;2023-01-19T09:34:59;28.80;;;22.00;;
14872;SDS011;7528;48.576;19.122;2023-01-19T09:40:02;24.13;;;18.90;;
14872;SDS011;7528;48.576;19.122;2023-01-19T09:45:07;24.27;;;17.63;;
14872;SDS011;7528;48.576;19.122;2023-01-19T09:50:17;29.70;;;17.90;;
14872;SDS011;7528;48.576;19.122;2023-01-19T09:55:27;27.37;;;17.43;;
14872;SDS011;7528;48.576;19.122;2023-01-19T10:00:33;21.63;;;13.17;;
14872;SDS011;7528;48.576;19.122;2023-01-19T10:05:36;17.73;;;12.17;;
14872;SDS011;7528;48.576;19.122;2023-01-19T10:10:44;17.77;;;12.03;;
14872;SDS011;7528;48.576;19.122;2023-01-19T10:15:57;16.23;;;11.07;;
14872;SDS011;7528;48.576;19.122;2023-01-19T10:21:09;16.33;;;10.93;;
14872;SDS011;7528;48.576;19.122;2023-01-19T10:26:15;13.57;;;10.30;;
14872;SDS011;7528;48.576;19.122;2023-01-19T10:31:22;13.70;;;10.47;;
14872;SDS011;7528;48.576;19.122;2023-01-19T10:36:27;15.37;;;11.43;;
14872;SDS011;7528;48.576;19.122;2023-01-19T10:41:34;17.90;;;11.70;;
14872;SDS011;7528;48.576;19.122;2023-01-19T10:46:43;17.53;;;11.90;;
14872;SDS011;7528;48.576;19.122;2023-01-19T10:51:47;19.77;;;13.30;;
14872;SDS011;7528;48.576;19.122;2023-01-19T10:56:50;25.13;;;14.40;;
14872;SDS011;7528;48.576;19.122;2023-01-19T11:02:15;25.23;;;20.50;;
14872;SDS011;7528;48.576;19.122;2023-01-19T11:07:20;18.27;;;13.90;;
14872;SDS011;7528;48.576;19.122;2023-01-19T11:12:24;16.70;;;12.87;;
14872;SDS011;7528;48.576;19.122;2023-01-19T11:17:27;30.77;;;20.00;;
14872;SDS011;7528;48.576;19.122;2023-01-19T11:22:30;28.43;;;19.23;;
14872;SDS011;7528;48.576;19.122;2023-01-19T11:27:34;25.37;;;17.67;;
14872;SDS011;7528;48.576;19.122;2023-01-19T11:32:39;19.83;;;15.87;;
14872;SDS011;7528;48.576;19.122;2023-01-19T11:37:42;26.33;;;19.43;;
14872;SDS011;7528;48.576;19.122;2023-01-19T11:42:44;22.43;;;17.40;;
14872;SDS011;7528;48.576;19.122;2023-01-19T11:47:48;19.97;;;15.77;;
14872;SDS011;7528;48.576;19.122;2023-01-19T11:52:53;21.90;;;16.20;;
14872;SDS011;7528;48.576;19.122;2023-01-19T11:58:00;12.47;;;10.73;;
14872;SDS011;7528;48.576;19.122;2023-01-19T12:03:07;3.33;;;2.80;;
14872;SDS011;7528;48.576;19.122;2023-01-19T12:08:17;12.20;;;9.30;;
14872;SDS011;7528;48.576;19.122;2023-01-19T12:13:24;4.20;;;3.80;;
14872;SDS011;7528;48.576;19.122;2023-01-19T12:18:31;6.30;;;4.93;;
14872;SDS011;7528;48.576;19.122;2023-01-19T12:23:40;5.27;;;3.77;;
14872;SDS011;7528;48.576;19.122;2023-01-19T12:28:49;5.23;;;3.40;;
14872;SDS011;7528;48.576;19.122;2023-01-19T12:33:56;5.27;;;4.50;;
14872;SDS011;7528;48.576;19.122;2023-01-19T12:39:30;4.70;;;4.00;;
14872;SDS011;7528;48.576;19.122;2023-01-19T12:44:34;4.37;;;3.10;;
14872;SDS011;7528;48.576;19.122;2023-01-19T12:49:40;2.40;;;2.20;;
14872;SDS011;7528;48.576;19.122;2023-01-19T12:54:52;2.30;;;2.10;;
14872;SDS011;7528;48.576;19.122;2023-01-19T13:00:03;5.80;;;3.97;;
14872;SDS011;7528;48.576;19.122;2023-01-19T13:05:12;7.43;;;5.93;;
14872;SDS011;7528;48.576;19.122;2023-01-19T13:15:59;5.20;;;;;
14872;SDS011;7528;48.576;19.122;2023-01-19T13:21:42;8.17;;;4.10;;
14872;SDS011;7528;48.576;19.122;2023-01-19T13:26:51;8.37;;;6.27;;
14872;SDS011;7528;48.576;19.122;2023-01-19T13:31:57;8.87;;;6.90;;
14872;SDS011;7528;48.576;19.122;2023-01-19T13:37:04;10.23;;;7.47;;
14872;SDS011;7528;48.576;19.122;2023-01-19T13:42:17;9.60;;;7.37;;
14872;SDS011;7528;48.576;19.122;2023-01-19T13:47:25;11.57;;;8.50;;
14872;SDS011;7528;48.576;19.122;2023-01-19T13:52:41;9.87;;;7.97;;
14872;SDS011;7528;48.576;19.122;2023-01-19T13:57:46;6.97;;;4.97;;
14872;SDS011;7528;48.576;19.122;2023-01-19T14:02:51;7.67;;;5.07;;
14872;SDS011;7528;48.576;19.122;2023-01-19T14:08:01;6.37;;;4.90;;
14872;SDS011;7528;48.576;19.122;2023-01-19T14:13:05;10.33;;;6.23;;
14872;SDS011;7528;48.576;19.122;2023-01-19T14:18:24;12.57;;;8.03;;
14872;SDS011;7528;48.576;19.122;2023-01-19T14:23:53;7.47;;;4.87;;
14872;SDS011;7528;48.576;19.122;2023-01-19T14:29:12;8.33;;;4.57;;
14872;SDS011;7528;48.576;19.122;2023-01-19T14:34:29;6.77;;;5.20;;
14872;SDS011;7528;48.576;19.122;2023-01-19T14:39:35;12.53;;;8.20;;
14872;SDS011;7528;48.576;19.122;2023-01-19T14:44:37;8.07;;;6.17;;
14872;SDS011;7528;48.576;19.122;2023-01-19T14:49:40;10.80;;;9.10;;
14872;SDS011;7528;48.576;19.122;2023-01-19T14:54:49;6.80;;;5.30;;
14872;SDS011;7528;48.576;19.122;2023-01-19T14:59:52;11.27;;;9.63;;
14872;SDS011;7528;48.576;19.122;2023-01-19T15:04:55;12.30;;;9.77;;
14872;SDS011;7528;48.576;19.122;2023-01-19T15:09:59;7.20;;;5.00;;
14872;SDS011;7528;48.576;19.122;2023-01-19T15:15:01;7.83;;;5.80;;
14872;SDS011;7528;48.576;19.122;2023-01-19T15:20:05;12.33;;;9.47;;
14872;SDS011;7528;48.576;19.122;2023-01-19T15:25:16;10.20;;;7.17;;
14872;SDS011;7528;48.576;19.122;2023-01-19T15:30:20;9.07;;;5.00;;
14872;SDS011;7528;48.576;19.122;2023-01-19T15:35:27;10.77;;;7.40;;
14872;SDS011;7528;48.576;19.122;2023-01-19T15:40:30;11.27;;;8.10;;
14872;SDS011;7528;48.576;19.122;2023-01-19T15:45:33;11.53;;;8.60;;
14872;SDS011;7528;48.576;19.122;2023-01-19T15:50:39;14.77;;;10.60;;
14872;SDS011;7528;48.576;19.122;2023-01-19T15:55:47;14.33;;;10.57;;
14872;SDS011;7528;48.576;19.122;2023-01-19T16:00:54;16.33;;;11.37;;
14872;SDS011;7528;48.576;19.122;2023-01-19T16:05:58;15.03;;;11.70;;
14872;SDS011;7528;48.576;19.122;2023-01-19T16:11:05;17.83;;;13.37;;
14872;SDS011;7528;48.576;19.122;2023-01-19T16:16:11;17.17;;;12.20;;
14872;SDS011;7528;48.576;19.122;2023-01-19T16:21:15;16.27;;;12.93;;
14872;SDS011;7528;48.576;19.122;2023-01-19T16:26:24;32.67;;;20.37;;
14872;SDS011;7528;48.576;19.122;2023-01-19T16:31:28;21.00;;;15.90;;
14872;SDS011;7528;48.576;19.122;2023-01-19T16:36:31;19.07;;;14.97;;
14872;SDS011;7528;48.576;19.122;2023-01-19T16:41:36;16.70;;;13.47;;
14872;SDS011;7528;48.576;19.122;2023-01-19T16:46:39;16.90;;;13.80;;
14872;SDS011;7528;48.576;19.122;2023-01-19T16:51:42;16.20;;;12.47;;
14872;SDS011;7528;48.576;19.122;2023-01-19T16:56:46;18.83;;;14.13;;
14872;SDS011;7528;48.576;19.122;2023-01-19T17:01:49;16.57;;;12.23;;
14872;SDS011;7528;48.576;19.122;2023-01-19T17:06:52;26.00;;;14.83;;
14872;SDS011;7528;48.576;19.122;2023-01-19T17:11:56;15.67;;;12.83;;
14872;SDS011;7528;48.576;19.122;2023-01-19T17:16:59;17.87;;;14.20;;
14872;SDS011;7528;48.576;19.122;2023-01-19T17:22:01;22.90;;;15.70;;
14872;SDS011;7528;48.576;19.122;2023-01-19T17:27:05;27.17;;;20.63;;
14872;SDS011;7528;48.576;19.122;2023-01-19T17:32:07;22.70;;;15.50;;
14872;SDS011;7528;48.576;19.122;2023-01-19T17:37:10;22.37;;;16.90;;
14872;SDS011;7528;48.576;19.122;2023-01-19T17:42:13;21.63;;;14.63;;
14872;SDS011;7528;48.576;19.122;2023-01-19T17:47:16;26.53;;;20.40;;
14872;SDS011;7528;48.576;19.122;2023-01-19T17:52:24;18.40;;;13.40;;
14872;SDS011;7528;48.576;19.122;2023-01-19T17:57:27;19.67;;;16.20;;
14872;SDS011;7528;48.576;19.122;2023-01-19T18:02:30;30.90;;;23.43;;
14872;SDS011;7528;48.576;19.122;2023-01-19T18:07:33;31.43;;;24.20;;
14872;SDS011;7528;48.576;19.122;2023-01-19T18:12:37;25.17;;;19.07;;
14872;SDS011;7528;48.576;19.122;2023-01-19T18:17:39;8.80;;;7.77;;
14872;SDS011;7528;48.576;19.122;2023-01-19T18:22:42;13.50;;;12.07;;
14872;SDS011;7528;48.576;19.122;2023-01-19T18:27:46;11.10;;;9.80;;
14872;SDS011;7528;48.576;19.122;2023-01-19T18:32:48;13.37;;;9.97;;
14872;SDS011;7528;48.576;19.122;2023-01-19T18:37:51;11.93;;;9.20;;
14872;SDS011;7528;48.576;19.122;2023-01-19T18:42:55;9.40;;;8.37;;
14872;SDS011;7528;48.576;19.122;2023-01-19T18:47:59;10.40;;;9.40;;
14872;SDS011;7528;48.576;19.122;2023-01-19T18:53:01;11.47;;;10.30;;
14872;SDS011;7528;48.576;19.122;2023-01-19T18:58:05;14.43;;;12.90;;
14872;SDS011;7528;48.576;19.122;2023-01-19T19:03:08;14.03;;;11.77;;
14872;SDS011;7528;48.576;19.122;2023-01-19T19:08:10;10.13;;;9.10;;
14872;SDS011;7528;48.576;19.122;2023-01-19T19:13:14;18.63;;;16.73;;
14872;SDS011;7528;48.576;19.122;2023-01-19T19:18:19;17.43;;;15.57;;
14872;SDS011;7528;48.576;19.122;2023-01-19T19:23:22;21.63;;;16.50;;
14872;SDS011;7528;48.576;19.122;2023-01-19T19:28:26;20.83;;;15.43;;
14872;SDS011;7528;48.576;19.122;2023-01-19T19:33:28;22.47;;;16.23;;
14872;SDS011;7528;48.576;19.122;2023-01-19T19:38:31;27.00;;;19.80;;
14872;SDS011;7528;48.576;19.122;2023-01-19T19:43:35;21.97;;;14.90;;
14872;SDS011;7528;48.576;19.122;2023-01-19T19:48:38;20.93;;;15.33;;
14872;SDS011;7528;48.576;19.122;2023-01-19T19:53:41;23.13;;;16.27;;
14872;SDS011;7528;48.576;19.122;2023-01-19T19:58:44;22.87;;;17.47;;
14872;SDS011;7528;48.576;19.122;2023-01-19T20:03:48;66.23;;;38.03;;
14872;SDS011;7528;48.576;19.122;2023-01-19T20:08:50;10.87;;;9.20;;
14872;SDS011;7528;48.576;19.122;2023-01-19T20:13:56;7.87;;;7.00;;
14872;SDS011;7528;48.576;19.122;2023-01-19T20:18:58;7.60;;;6.03;;
14872;SDS011;7528;48.576;19.122;2023-01-19T20:24:02;6.17;;;4.77;;
14872;SDS011;7528;48.576;19.122;2023-01-19T20:29:07;7.77;;;6.50;;
14872;SDS011;7528;48.576;19.122;2023-01-19T20:34:11;9.17;;;7.10;;
14872;SDS011;7528;48.576;19.122;2023-01-19T20:39:15;5.83;;;5.20;;
14872;SDS011;7528;48.576;19.122;2023-01-19T20:44:20;7.23;;;5.20;;
14872;SDS011;7528;48.576;19.122;2023-01-19T20:49:27;7.60;;;6.57;;
14872;SDS011;7528;48.576;19.122;2023-01-19T20:54:29;10.00;;;8.30;;
14872;SDS011;7528;48.576;19.122;2023-01-19T20:59:34;6.40;;;5.13;;
14872;SDS011;7528;48.576;19.122;2023-01-19T21:04:37;13.97;;;11.30;;
14872;SDS011;7528;48.576;19.122;2023-01-19T21:09:40;37.73;;;23.83;;
14872;SDS011;7528;48.576;19.122;2023-01-19T21:14:43;14.50;;;8.80;;
14872;SDS011;7528;48.576;19.122;2023-01-19T21:19:46;9.03;;;7.20;;
14872;SDS011;7528;48.576;19.122;2023-01-19T21:24:49;7.47;;;6.70;;
14872;SDS011;7528;48.576;19.122;2023-01-19T21:29:52;8.40;;;7.27;;
14872;SDS011;7528;48.576;19.122;2023-01-19T21:34:55;8.40;;;7.40;;
14872;SDS011;7528;48.576;19.122;2023-01-19T21:39:57;9.33;;;7.30;;
14872;SDS011;7528;48.576;19.122;2023-01-19T21:45:01;17.10;;;13.43;;
14872;SDS011;7528;48.576;19.122;2023-01-19T21:50:04;22.63;;;18.80;;
14872;SDS011;7528;48.576;19.122;2023-01-19T21:55:07;13.70;;;12.13;;
14872;SDS011;7528;48.576;19.122;2023-01-19T22:00:11;8.67;;;7.70;;
14872;SDS011;7528;48.576;19.122;2023-01-19T22:05:14;9.43;;;7.50;;
14872;SDS011;7528;48.576;19.122;2023-01-19T22:10:17;8.40;;;7.07;;
14872;SDS011;7528;48.576;19.122;2023-01-19T22:15:21;8.47;;;6.40;;
14872;SDS011;7528;48.576;19.122;2023-01-19T22:20:24;9.23;;;6.67;;
14872;SDS011;7528;48.576;19.122;2023-01-19T22:25:26;7.37;;;6.30;;
14872;SDS011;7528;48.576;19.122;2023-01-19T22:30:30;9.30;;;6.83;;
14872;SDS011;7528;48.576;19.122;2023-01-19T22:35:32;8.10;;;7.03;;
14872;SDS011;7528;48.576;19.122;2023-01-19T22:40:35;10.73;;;8.60;;
14872;SDS011;7528;48.576;19.122;2023-01-19T22:45:40;11.00;;;8.63;;
14872;SDS011;7528;48.576;19.122;2023-01-19T22:50:43;10.83;;;8.77;;
14872;SDS011;7528;48.576;19.122;2023-01-19T22:55:45;13.00;;;9.77;;
14872;SDS011;7528;48.576;19.122;2023-01-19T23:00:49;12.53;;;9.20;;
14872;SDS011;7528;48.576;19.122;2023-01-19T23:05:52;10.90;;;8.90;;
14872;SDS011;7528;48.576;19.122;2023-01-19T23:10:54;14.97;;;10.73;;
14872;SDS011;7528;48.576;19.122;2023-01-19T23:15:58;12.70;;;9.73;;
14872;SDS011;7528;48.576;19.122;2023-01-19T23:21:01;8.80;;;7.73;;
14872;SDS011;7528;48.576;19.122;2023-01-19T23:26:04;7.90;;;6.90;;
14872;SDS011;7528;48.576;19.122;2023-01-19T23:31:14;9.60;;;7.60;;
14872;SDS011;7528;48.576;19.122;2023-01-19T23:36:22;8.63;;;7.17;;
14872;SDS011;7528;48.576;19.122;2023-01-19T23:41:26;8.60;;;7.00;;
14872;SDS011;7528;48.576;19.122;2023-01-19T23:46:31;6.17;;;5.57;;
14872;SDS011;7528;48.576;19.122;2023-01-19T23:51:33;7.10;;;6.07;;
14872;SDS011;7528;48.576;19.122;2023-01-19T23:56:36;9.50;;;7.63;;
